sensor_id;sensor_type;location;lat;lon;timestamp;pressure;altitude;pressure_sealevel;temperature;humidity
45285;BME280;31026;43.780;25.948;2023-08-01T00:00:34;100363.09;;;25.11;62.71
45285;BME280;31026;43.780;25.948;2023-08-01T00:03:05;100358.72;;;25.10;62.70
45285;BME280;31026;43.780;25.948;2023-08-01T00:05:33;100352.09;;;25.13;62.30
45285;BME280;31026;43.780;25.948;2023-08-01T00:08:02;100356.13;;;25.17;62.14
45285;BME280;31026;43.780;25.948;2023-08-01T00:10:31;100364.59;;;25.14;62.59
45285;BME280;31026;43.780;25.948;2023-08-01T00:12:59;100349.09;;;25.08;62.56
45285;BME280;31026;43.780;25.948;2023-08-01T00:15:27;100348.94;;;25.09;62.57
45285;BME280;31026;43.780;25.948;2023-08-01T00:17:56;100336.81;;;25.05;62.75
45285;BME280;31026;43.780;25.948;2023-08-01T00:20:27;100347.41;;;25.07;62.47
45285;BME280;31026;43.780;25.948;2023-08-01T00:22:55;100338.47;;;25.06;62.46
45285;BME280;31026;43.780;25.948;2023-08-01T00:25:23;100330.91;;;25.01;62.68
45285;BME280;31026;43.780;25.948;2023-08-01T00:27:51;100322.63;;;25.03;62.51
45285;BME280;31026;43.780;25.948;2023-08-01T00:30:20;100342.22;;;25.05;62.61
45285;BME280;31026;43.780;25.948;2023-08-01T00:32:48;100340.03;;;25.00;62.66
45285;BME280;31026;43.780;25.948;2023-08-01T00:35:16;100339.28;;;25.07;62.66
45285;BME280;31026;43.780;25.948;2023-08-01T00:37:47;100330.53;;;25.05;62.67
45285;BME280;31026;43.780;25.948;2023-08-01T00:40:16;100341.81;;;25.08;62.60
45285;BME280;31026;43.780;25.948;2023-08-01T00:42:44;100333.88;;;25.07;62.77
45285;BME280;31026;43.780;25.948;2023-08-01T00:45:14;100328.22;;;25.01;62.84
45285;BME280;31026;43.780;25.948;2023-08-01T00:47:42;100334.28;;;25.04;62.78
45285;BME280;31026;43.780;25.948;2023-08-01T00:50:10;100322.16;;;24.99;62.96
45285;BME280;31026;43.780;25.948;2023-08-01T00:52:38;100319.44;;;24.99;62.60
45285;BME280;31026;43.780;25.948;2023-08-01T00:55:10;100308.81;;;24.98;62.84
45285;BME280;31026;43.780;25.948;2023-08-01T00:57:38;100309.28;;;25.01;62.79
45285;BME280;31026;43.780;25.948;2023-08-01T01:00:07;100315.34;;;25.04;62.84
45285;BME280;31026;43.780;25.948;2023-08-01T01:02:36;100315.59;;;25.09;62.73
45285;BME280;31026;43.780;25.948;2023-08-01T01:05:05;100316.81;;;25.06;62.62
45285;BME280;31026;43.780;25.948;2023-08-01T01:07:33;100314.41;;;25.11;62.39
45285;BME280;31026;43.780;25.948;2023-08-01T01:10:03;100310.56;;;25.06;62.28
45285;BME280;31026;43.780;25.948;2023-08-01T01:12:34;100304.88;;;25.00;62.68
45285;BME280;31026;43.780;25.948;2023-08-01T01:15:02;100305.16;;;25.06;62.37
45285;BME280;31026;43.780;25.948;2023-08-01T01:17:30;100310.41;;;25.07;62.63
45285;BME280;31026;43.780;25.948;2023-08-01T01:19:58;100299.09;;;25.04;62.46
45285;BME280;31026;43.780;25.948;2023-08-01T01:22:29;100290.41;;;25.08;62.43
45285;BME280;31026;43.780;25.948;2023-08-01T01:24:58;100280.63;;;25.07;62.63
45285;BME280;31026;43.780;25.948;2023-08-01T01:27:27;100281.47;;;25.08;62.08
45285;BME280;31026;43.780;25.948;2023-08-01T01:29:56;100283.13;;;25.09;62.49
45285;BME280;31026;43.780;25.948;2023-08-01T01:32:25;100297.31;;;25.11;62.07
45285;BME280;31026;43.780;25.948;2023-08-01T01:34:53;100286.06;;;25.07;62.43
45285;BME280;31026;43.780;25.948;2023-08-01T01:37:21;100286.47;;;25.11;62.31
45285;BME280;31026;43.780;25.948;2023-08-01T01:39:52;100280.25;;;25.10;62.34
45285;BME280;31026;43.780;25.948;2023-08-01T01:42:21;100284.94;;;25.01;62.72
45285;BME280;31026;43.780;25.948;2023-08-01T01:44:49;100291.47;;;25.07;62.47
45285;BME280;31026;43.780;25.948;2023-08-01T01:47:17;100301.72;;;25.12;62.39
45285;BME280;31026;43.780;25.948;2023-08-01T01:49:45;100289.59;;;25.08;62.53
45285;BME280;31026;43.780;25.948;2023-08-01T01:52:14;100302.63;;;25.04;62.69
45285;BME280;31026;43.780;25.948;2023-08-01T01:54:42;100305.81;;;25.08;62.33
45285;BME280;31026;43.780;25.948;2023-08-01T01:57:13;100298.44;;;25.01;62.49
45285;BME280;31026;43.780;25.948;2023-08-01T01:59:41;100308.34;;;25.09;62.28
45285;BME280;31026;43.780;25.948;2023-08-01T02:02:09;100309.34;;;25.08;62.43
45285;BME280;31026;43.780;25.948;2023-08-01T02:04:38;100305.34;;;25.04;62.34
45285;BME280;31026;43.780;25.948;2023-08-01T02:07:06;100312.63;;;25.04;62.36
45285;BME280;31026;43.780;25.948;2023-08-01T02:09:35;100306.56;;;25.01;62.41
45285;BME280;31026;43.780;25.948;2023-08-01T02:12:03;100297.22;;;25.04;62.34
45285;BME280;31026;43.780;25.948;2023-08-01T02:14:36;100307.41;;;25.02;62.43
45285;BME280;31026;43.780;25.948;2023-08-01T02:17:04;100311.31;;;24.99;62.41
45285;BME280;31026;43.780;25.948;2023-08-01T02:19:33;100301.06;;;24.95;62.55
45285;BME280;31026;43.780;25.948;2023-08-01T02:22:01;100308.22;;;25.02;62.47
45285;BME280;31026;43.780;25.948;2023-08-01T02:24:30;100310.94;;;25.02;62.61
45285;BME280;31026;43.780;25.948;2023-08-01T02:26:58;100310.03;;;24.95;62.80
45285;BME280;31026;43.780;25.948;2023-08-01T02:29:26;100316.34;;;25.02;62.70
45285;BME280;31026;43.780;25.948;2023-08-01T02:31:57;100316.00;;;25.06;62.49
45285;BME280;31026;43.780;25.948;2023-08-01T02:34:25;100307.56;;;25.00;62.34
45285;BME280;31026;43.780;25.948;2023-08-01T02:36:54;100317.38;;;25.01;62.29
45285;BME280;31026;43.780;25.948;2023-08-01T02:39:22;100310.84;;;24.96;62.75
45285;BME280;31026;43.780;25.948;2023-08-01T02:41:50;100322.50;;;24.96;62.76
45285;BME280;31026;43.780;25.948;2023-08-01T02:44:18;100322.16;;;24.99;62.65
45285;BME280;31026;43.780;25.948;2023-08-01T02:46:47;100320.19;;;24.93;62.94
45285;BME280;31026;43.780;25.948;2023-08-01T02:49:18;100333.31;;;24.96;62.76
45285;BME280;31026;43.780;25.948;2023-08-01T02:51:46;100321.66;;;24.96;62.55
45285;BME280;31026;43.780;25.948;2023-08-01T02:54:14;100312.34;;;24.98;62.62
45285;BME280;31026;43.780;25.948;2023-08-01T02:56:42;100327.09;;;24.96;62.62
45285;BME280;31026;43.780;25.948;2023-08-01T02:59:11;100322.41;;;24.90;62.80
45285;BME280;31026;43.780;25.948;2023-08-01T03:01:39;100332.00;;;24.92;62.70
45285;BME280;31026;43.780;25.948;2023-08-01T03:04:07;100327.00;;;24.89;62.85
45285;BME280;31026;43.780;25.948;2023-08-01T03:06:39;100319.53;;;24.91;62.63
45285;BME280;31026;43.780;25.948;2023-08-01T03:09:07;100338.25;;;24.93;62.96
45285;BME280;31026;43.780;25.948;2023-08-01T03:11:36;100327.56;;;24.99;62.68
45285;BME280;31026;43.780;25.948;2023-08-01T03:14:04;100332.00;;;24.92;62.73
45285;BME280;31026;43.780;25.948;2023-08-01T03:16:33;100339.66;;;24.89;62.88
45285;BME280;31026;43.780;25.948;2023-08-01T03:19:01;100339.13;;;24.93;62.75
45285;BME280;31026;43.780;25.948;2023-08-01T03:21:30;100340.13;;;24.92;62.86
45285;BME280;31026;43.780;25.948;2023-08-01T03:24:01;100345.53;;;24.92;62.75
45285;BME280;31026;43.780;25.948;2023-08-01T03:26:33;100338.09;;;24.94;62.67
45285;BME280;31026;43.780;25.948;2023-08-01T03:29:02;100344.53;;;24.93;62.72
45285;BME280;31026;43.780;25.948;2023-08-01T03:31:30;100344.88;;;24.90;62.73
45285;BME280;31026;43.780;25.948;2023-08-01T03:33:58;100357.19;;;24.93;62.63
45285;BME280;31026;43.780;25.948;2023-08-01T03:36:27;100342.00;;;24.92;62.67
45285;BME280;31026;43.780;25.948;2023-08-01T03:38:55;100346.59;;;24.91;62.62
45285;BME280;31026;43.780;25.948;2023-08-01T03:41:26;100337.06;;;24.95;62.39
45285;BME280;31026;43.780;25.948;2023-08-01T03:43:54;100357.31;;;24.99;62.35
45285;BME280;31026;43.780;25.948;2023-08-01T03:46:22;100349.56;;;24.96;62.48
45285;BME280;31026;43.780;25.948;2023-08-01T03:48:50;100346.38;;;24.93;62.67
45285;BME280;31026;43.780;25.948;2023-08-01T03:51:19;100342.09;;;24.98;62.52
45285;BME280;31026;43.780;25.948;2023-08-01T03:53:47;100342.38;;;25.04;62.26
45285;BME280;31026;43.780;25.948;2023-08-01T03:56:15;100374.84;;;25.04;62.12
45285;BME280;31026;43.780;25.948;2023-08-01T03:58:46;100341.81;;;25.08;62.07
45285;BME280;31026;43.780;25.948;2023-08-01T04:01:15;100351.63;;;25.09;62.27
45285;BME280;31026;43.780;25.948;2023-08-01T04:03:43;100346.69;;;25.13;62.30
45285;BME280;31026;43.780;25.948;2023-08-01T04:06:11;100332.94;;;25.14;61.80
45285;BME280;31026;43.780;25.948;2023-08-01T04:08:40;100340.25;;;25.14;61.95
45285;BME280;31026;43.780;25.948;2023-08-01T04:11:09;100341.53;;;25.18;62.06
45285;BME280;31026;43.780;25.948;2023-08-01T04:13:37;100350.69;;;25.17;61.91
45285;BME280;31026;43.780;25.948;2023-08-01T04:16:08;100343.59;;;25.16;62.14
45285;BME280;31026;43.780;25.948;2023-08-01T04:18:36;100364.16;;;25.25;61.57
45285;BME280;31026;43.780;25.948;2023-08-01T04:21:05;100347.28;;;25.23;61.88
45285;BME280;31026;43.780;25.948;2023-08-01T04:23:34;100349.41;;;25.28;61.52
45285;BME280;31026;43.780;25.948;2023-08-01T04:26:02;100353.34;;;25.25;61.75
45285;BME280;31026;43.780;25.948;2023-08-01T04:28:31;100366.81;;;25.10;62.07
45285;BME280;31026;43.780;25.948;2023-08-01T04:31:00;100353.47;;;25.09;62.30
45285;BME280;31026;43.780;25.948;2023-08-01T04:33:31;100357.56;;;25.05;62.48
45285;BME280;31026;43.780;25.948;2023-08-01T04:35:59;100364.22;;;25.17;61.87
45285;BME280;31026;43.780;25.948;2023-08-01T04:38:27;100356.19;;;25.09;62.46
45285;BME280;31026;43.780;25.948;2023-08-01T04:40:55;100366.75;;;25.04;62.29
45285;BME280;31026;43.780;25.948;2023-08-01T04:43:24;100358.88;;;25.09;62.26
45285;BME280;31026;43.780;25.948;2023-08-01T04:45:52;100371.41;;;25.10;62.33
45285;BME280;31026;43.780;25.948;2023-08-01T04:48:20;100374.84;;;25.04;62.42
45285;BME280;31026;43.780;25.948;2023-08-01T04:50:51;100377.81;;;25.09;62.29
45285;BME280;31026;43.780;25.948;2023-08-01T04:53:19;100353.22;;;25.04;61.99
45285;BME280;31026;43.780;25.948;2023-08-01T04:55:47;100364.50;;;25.07;62.21
45285;BME280;31026;43.780;25.948;2023-08-01T04:58:16;100390.34;;;25.10;62.45
45285;BME280;31026;43.780;25.948;2023-08-01T05:20:25;100386.94;;;24.93;62.84
45285;BME280;31026;43.780;25.948;2023-08-01T05:22:55;100375.94;;;24.94;62.73
45285;BME280;31026;43.780;25.948;2023-08-01T05:25:24;100386.78;;;24.94;62.73
45285;BME280;31026;43.780;25.948;2023-08-01T05:27:52;100395.06;;;24.93;62.91
45285;BME280;31026;43.780;25.948;2023-08-01T05:30:20;100390.50;;;24.93;62.86
45285;BME280;31026;43.780;25.948;2023-08-01T05:32:49;100389.84;;;24.91;62.87
45285;BME280;31026;43.780;25.948;2023-08-01T05:35:19;100396.94;;;24.92;62.98
45285;BME280;31026;43.780;25.948;2023-08-01T05:37:50;100396.56;;;24.95;62.80
45285;BME280;31026;43.780;25.948;2023-08-01T05:40:18;100316.31;;;24.35;62.96
45285;BME280;31026;43.780;25.948;2023-08-01T05:42:46;100395.28;;;24.91;62.76
45285;BME280;31026;43.780;25.948;2023-08-01T05:45:14;100401.34;;;24.93;62.66
45285;BME280;31026;43.780;25.948;2023-08-01T05:47:43;100407.41;;;24.95;62.92
45285;BME280;31026;43.780;25.948;2023-08-01T05:50:11;100396.56;;;24.95;62.85
45285;BME280;31026;43.780;25.948;2023-08-01T05:52:39;100389.47;;;24.94;62.80
45285;BME280;31026;43.780;25.948;2023-08-01T05:55:10;100392.19;;;24.94;62.83
45285;BME280;31026;43.780;25.948;2023-08-01T05:57:39;100389.84;;;24.91;62.75
45285;BME280;31026;43.780;25.948;2023-08-01T06:00:07;100389.19;;;24.89;63.01
45285;BME280;31026;43.780;25.948;2023-08-01T06:02:36;100394.41;;;24.91;62.95
45285;BME280;31026;43.780;25.948;2023-08-01T06:05:05;100386.50;;;24.89;63.04
45285;BME280;31026;43.780;25.948;2023-08-01T06:07:33;100386.50;;;24.89;63.13
45285;BME280;31026;43.780;25.948;2023-08-01T06:10:01;100384.81;;;24.88;63.10
45285;BME280;31026;43.780;25.948;2023-08-01T06:12:32;100381.91;;;24.90;62.83
45285;BME280;31026;43.780;25.948;2023-08-01T06:15:00;100377.34;;;24.90;63.12
45285;BME280;31026;43.780;25.948;2023-08-01T06:17:29;100371.56;;;24.93;62.85
45285;BME280;31026;43.780;25.948;2023-08-01T06:19:57;100373.25;;;24.94;62.87
45285;BME280;31026;43.780;25.948;2023-08-01T06:22:25;100371.19;;;24.96;62.74
45285;BME280;31026;43.780;25.948;2023-08-01T06:24:53;100353.13;;;24.97;63.03
45285;BME280;31026;43.780;25.948;2023-08-01T06:27:22;100370.84;;;24.99;62.82
45285;BME280;31026;43.780;25.948;2023-08-01T06:29:52;100365.44;;;24.99;62.91
45285;BME280;31026;43.780;25.948;2023-08-01T06:32:21;100356.28;;;25.00;62.72
45285;BME280;31026;43.780;25.948;2023-08-01T06:34:49;100356.28;;;25.00;62.76
45285;BME280;31026;43.780;25.948;2023-08-01T06:37:17;100353.22;;;25.04;62.62
45285;BME280;31026;43.780;25.948;2023-08-01T06:39:46;100360.09;;;25.06;62.55
45285;BME280;31026;43.780;25.948;2023-08-01T06:42:14;100353.38;;;25.02;62.67
45285;BME280;31026;43.780;25.948;2023-08-01T06:44:43;100360.94;;;25.07;62.55
45285;BME280;31026;43.780;25.948;2023-08-01T06:47:14;100368.41;;;25.05;62.64
45285;BME280;31026;43.780;25.948;2023-08-01T06:49:42;100351.16;;;25.06;62.42
45285;BME280;31026;43.780;25.948;2023-08-01T06:52:10;100357.22;;;25.08;62.60
45285;BME280;31026;43.780;25.948;2023-08-01T06:54:39;100359.75;;;25.09;62.49
45285;BME280;31026;43.780;25.948;2023-08-01T06:57:07;100348.44;;;25.06;62.67
45285;BME280;31026;43.780;25.948;2023-08-01T06:59:35;100359.94;;;25.08;62.55
45285;BME280;31026;43.780;25.948;2023-08-01T07:02:04;100358.22;;;25.07;62.64
45285;BME280;31026;43.780;25.948;2023-08-01T07:04:36;100358.63;;;25.04;62.88
45285;BME280;31026;43.780;25.948;2023-08-01T07:07:04;100361.31;;;25.04;62.69
45285;BME280;31026;43.780;25.948;2023-08-01T07:09:33;100356.19;;;25.09;62.55
45285;BME280;31026;43.780;25.948;2023-08-01T07:12:02;100357.41;;;25.06;62.82
45285;BME280;31026;43.780;25.948;2023-08-01T07:14:30;100350.84;;;25.00;62.82
45285;BME280;31026;43.780;25.948;2023-08-01T07:16:59;100356.94;;;25.02;62.80
45285;BME280;31026;43.780;25.948;2023-08-01T07:19:27;100356.94;;;25.02;62.63
45285;BME280;31026;43.780;25.948;2023-08-01T07:21:58;100348.44;;;25.06;62.82
45285;BME280;31026;43.780;25.948;2023-08-01T07:24:26;100347.16;;;25.01;62.90
45285;BME280;31026;43.780;25.948;2023-08-01T07:26:55;100344.44;;;25.01;62.88
45285;BME280;31026;43.780;25.948;2023-08-01T07:29:23;100342.47;;;24.95;62.90
45285;BME280;31026;43.780;25.948;2023-08-01T07:31:51;100340.44;;;24.97;63.03
45285;BME280;31026;43.780;25.948;2023-08-01T07:34:19;100345.44;;;25.00;62.88
45285;BME280;31026;43.780;25.948;2023-08-01T07:36:48;100335.84;;;24.98;62.98
45285;BME280;31026;43.780;25.948;2023-08-01T07:39:19;100340.03;;;25.00;62.98
45285;BME280;31026;43.780;25.948;2023-08-01T07:41:47;100331.75;;;25.02;62.92
45285;BME280;31026;43.780;25.948;2023-08-01T07:44:15;100334.19;;;24.97;62.95
45285;BME280;31026;43.780;25.948;2023-08-01T07:46:43;100338.72;;;24.96;63.08
45285;BME280;31026;43.780;25.948;2023-08-01T07:49:12;100337.06;;;24.95;62.88
45285;BME280;31026;43.780;25.948;2023-08-01T07:51:40;100336.31;;;25.01;63.13
45285;BME280;31026;43.780;25.948;2023-08-01T07:54:08;100334.38;;;24.95;63.00
45285;BME280;31026;43.780;25.948;2023-08-01T07:56:39;100330.81;;;24.95;63.17
45285;BME280;31026;43.780;25.948;2023-08-01T07:59:08;100337.06;;;24.95;63.19
45285;BME280;31026;43.780;25.948;2023-08-01T08:01:37;100326.44;;;24.94;62.94
45285;BME280;31026;43.780;25.948;2023-08-01T08:04:05;100339.94;;;24.94;63.11
45285;BME280;31026;43.780;25.948;2023-08-01T08:06:33;100329.31;;;24.92;63.11
45285;BME280;31026;43.780;25.948;2023-08-01T08:09:02;100328.94;;;24.95;62.92
45285;BME280;31026;43.780;25.948;2023-08-01T08:11:30;100325.03;;;24.98;63.21
45285;BME280;31026;43.780;25.948;2023-08-01T08:14:01;100339.59;;;24.97;63.18
45285;BME280;31026;43.780;25.948;2023-08-01T08:16:29;100330.44;;;24.98;63.26
45285;BME280;31026;43.780;25.948;2023-08-01T08:18:57;100330.09;;;25.01;63.15
45285;BME280;31026;43.780;25.948;2023-08-01T08:21:26;100325.50;;;25.01;62.88
45285;BME280;31026;43.780;25.948;2023-08-01T08:23:54;100321.09;;;25.00;63.02
45285;BME280;31026;43.780;25.948;2023-08-01T08:26:23;100322.16;;;24.99;62.96
45285;BME280;31026;43.780;25.948;2023-08-01T08:28:51;100346.19;;;24.94;62.87
45285;BME280;31026;43.780;25.948;2023-08-01T08:31:22;100323.81;;;25.00;63.12
45285;BME280;31026;43.780;25.948;2023-08-01T08:33:50;100318.03;;;25.04;62.83
45285;BME280;31026;43.780;25.948;2023-08-01T08:36:18;100318.69;;;25.06;63.02
45285;BME280;31026;43.780;25.948;2023-08-01T08:38:46;100317.38;;;25.01;62.97
45285;BME280;31026;43.780;25.948;2023-08-01T08:41:16;100317.00;;;25.05;62.74
45285;BME280;31026;43.780;25.948;2023-08-01T08:43:47;100310.56;;;25.06;62.96
45285;BME280;31026;43.780;25.948;2023-08-01T08:46:16;100304.50;;;25.04;63.03
45285;BME280;31026;43.780;25.948;2023-08-01T08:48:47;100313.63;;;25.02;62.97
45285;BME280;31026;43.780;25.948;2023-08-01T08:51:15;100315.59;;;25.09;62.93
45285;BME280;31026;43.780;25.948;2023-08-01T08:53:44;100295.66;;;25.10;62.97
45285;BME280;31026;43.780;25.948;2023-08-01T08:56:13;100296.00;;;25.07;62.70
45285;BME280;31026;43.780;25.948;2023-08-01T08:58:42;100281.38;;;25.16;62.42
45285;BME280;31026;43.780;25.948;2023-08-01T09:01:12;100289.88;;;25.13;62.91
45285;BME280;31026;43.780;25.948;2023-08-01T09:03:40;100287.88;;;25.07;62.80
45285;BME280;31026;43.780;25.948;2023-08-01T09:06:12;100278.75;;;25.08;62.67
45285;BME280;31026;43.780;25.948;2023-08-01T09:08:44;100293.94;;;25.09;62.67
45285;BME280;31026;43.780;25.948;2023-08-01T09:11:15;100285.47;;;25.12;62.67
45285;BME280;31026;43.780;25.948;2023-08-01T09:13:43;100286.13;;;25.14;62.65
45285;BME280;31026;43.780;25.948;2023-08-01T09:16:11;100285.75;;;25.17;62.87
45285;BME280;31026;43.780;25.948;2023-08-01T09:18:47;100281.53;;;25.14;62.53
45285;BME280;31026;43.780;25.948;2023-08-01T09:21:20;100273.25;;;25.16;62.46
45285;BME280;31026;43.780;25.948;2023-08-01T09:23:48;100270.34;;;25.17;62.61
45285;BME280;31026;43.780;25.948;2023-08-01T09:26:17;100267.19;;;25.14;62.65
45285;BME280;31026;43.780;25.948;2023-08-01T09:28:54;100259.44;;;25.11;62.80
45285;BME280;31026;43.780;25.948;2023-08-01T09:31:25;100265.88;;;25.10;62.99
45285;BME280;31026;43.780;25.948;2023-08-01T09:33:54;100261.13;;;25.12;62.90
45285;BME280;31026;43.780;25.948;2023-08-01T09:36:25;100254.88;;;25.11;62.62
45285;BME280;31026;43.780;25.948;2023-08-01T09:38:57;100254.69;;;25.13;62.76
45285;BME280;31026;43.780;25.948;2023-08-01T09:41:26;100256.72;;;25.11;62.87
45285;BME280;31026;43.780;25.948;2023-08-01T09:43:54;100262.44;;;25.16;62.77
45285;BME280;31026;43.780;25.948;2023-08-01T09:46:23;100262.81;;;25.13;62.77
45285;BME280;31026;43.780;25.948;2023-08-01T09:48:51;100257.41;;;25.13;62.83
45285;BME280;31026;43.780;25.948;2023-08-01T09:51:19;100255.06;;;25.10;62.77
45285;BME280;31026;43.780;25.948;2023-08-01T09:53:51;100236.69;;;25.05;62.79
45285;BME280;31026;43.780;25.948;2023-08-01T09:56:21;100253.38;;;25.09;63.19
45285;BME280;31026;43.780;25.948;2023-08-01T09:58:49;100248.81;;;25.09;63.00
45285;BME280;31026;43.780;25.948;2023-08-01T10:01:20;100250.66;;;25.09;62.98
45285;BME280;31026;43.780;25.948;2023-08-01T10:03:49;100250.66;;;25.09;62.85
45285;BME280;31026;43.780;25.948;2023-08-01T10:06:18;100244.25;;;25.10;62.93
45285;BME280;31026;43.780;25.948;2023-08-01T10:08:47;100236.69;;;25.05;63.10
45285;BME280;31026;43.780;25.948;2023-08-01T10:11:19;100236.13;;;25.10;63.17
45285;BME280;31026;43.780;25.948;2023-08-01T10:13:48;100232.38;;;25.11;62.80
45285;BME280;31026;43.780;25.948;2023-08-01T10:16:16;100206.19;;;25.11;62.73
45285;BME280;31026;43.780;25.948;2023-08-01T10:18:44;100219.88;;;25.10;62.79
45285;BME280;31026;43.780;25.948;2023-08-01T10:21:14;100213.66;;;25.09;62.79
45285;BME280;31026;43.780;25.948;2023-08-01T10:23:43;100219.44;;;25.06;63.08
45285;BME280;31026;43.780;25.948;2023-08-01T10:26:12;100219.59;;;25.05;63.27
45285;BME280;31026;43.780;25.948;2023-08-01T10:28:49;100223.19;;;25.05;63.04
45285;BME280;31026;43.780;25.948;2023-08-01T10:31:18;100199.00;;;25.04;63.35
45285;BME280;31026;43.780;25.948;2023-08-01T10:33:48;100204.78;;;25.00;63.21
45285;BME280;31026;43.780;25.948;2023-08-01T10:36:18;100209.81;;;25.04;63.33
45285;BME280;31026;43.780;25.948;2023-08-01T10:38:47;100210.66;;;25.04;63.01
45285;BME280;31026;43.780;25.948;2023-08-01T10:41:25;100203.19;;;25.06;63.01
45285;BME280;31026;43.780;25.948;2023-08-01T10:44:07;100201.53;;;25.05;63.14
45285;BME280;31026;43.780;25.948;2023-08-01T10:46:45;100192.56;;;25.05;63.39
45285;BME280;31026;43.780;25.948;2023-08-01T10:49:13;100176.06;;;24.99;63.09
45285;BME280;31026;43.780;25.948;2023-08-01T10:51:42;100194.59;;;25.02;63.32
45285;BME280;31026;43.780;25.948;2023-08-01T10:54:20;100188.19;;;25.04;63.36
45285;BME280;31026;43.780;25.948;2023-08-01T10:56:52;100173.72;;;24.96;63.28
45285;BME280;31026;43.780;25.948;2023-08-01T10:59:26;100173.56;;;24.98;63.55
45285;BME280;31026;43.780;25.948;2023-08-01T11:01:57;100175.03;;;25.00;63.20
45285;BME280;31026;43.780;25.948;2023-08-01T11:04:26;100179.78;;;24.98;63.42
45285;BME280;31026;43.780;25.948;2023-08-01T11:06:55;100178.78;;;24.99;63.40
45285;BME280;31026;43.780;25.948;2023-08-01T11:09:24;100180.44;;;25.00;63.54
45285;BME280;31026;43.780;25.948;2023-08-01T11:11:53;100165.25;;;24.99;63.39
45285;BME280;31026;43.780;25.948;2023-08-01T11:14:22;100158.63;;;25.02;63.20
45285;BME280;31026;43.780;25.948;2023-08-01T11:16:53;100159.84;;;24.99;63.23
45285;BME280;31026;43.780;25.948;2023-08-01T11:19:22;100160.50;;;25.01;63.14
45285;BME280;31026;43.780;25.948;2023-08-01T11:21:51;100159.19;;;24.97;63.62
45285;BME280;31026;43.780;25.948;2023-08-01T11:24:21;100161.50;;;25.00;63.34
45285;BME280;31026;43.780;25.948;2023-08-01T11:26:50;100161.50;;;25.00;63.55
45285;BME280;31026;43.780;25.948;2023-08-01T11:29:19;100156.09;;;25.00;63.41
45285;BME280;31026;43.780;25.948;2023-08-01T11:31:56;100157.97;;;25.00;63.54
45285;BME280;31026;43.780;25.948;2023-08-01T11:34:25;100150.31;;;25.04;63.46
45285;BME280;31026;43.780;25.948;2023-08-01T11:36:53;100144.91;;;25.04;63.19
45285;BME280;31026;43.780;25.948;2023-08-01T11:39:22;100131.19;;;25.05;63.47
45285;BME280;31026;43.780;25.948;2023-08-01T11:41:50;100132.22;;;25.04;63.16
45285;BME280;31026;43.780;25.948;2023-08-01T11:44:23;100126.63;;;25.06;63.25
45285;BME280;31026;43.780;25.948;2023-08-01T11:46:51;100122.88;;;25.07;63.13
45285;BME280;31026;43.780;25.948;2023-08-01T11:49:22;100119.78;;;25.10;63.01
45285;BME280;31026;43.780;25.948;2023-08-01T11:51:51;100119.16;;;25.08;63.36
45285;BME280;31026;43.780;25.948;2023-08-01T11:54:19;100100.84;;;25.10;63.00
45285;BME280;31026;43.780;25.948;2023-08-01T11:56:48;100097.88;;;25.05;63.36
45285;BME280;31026;43.780;25.948;2023-08-01T11:59:16;100101.22;;;25.07;63.09
45285;BME280;31026;43.780;25.948;2023-08-01T12:01:45;100100.22;;;25.08;63.22
45285;BME280;31026;43.780;25.948;2023-08-01T12:04:26;100102.50;;;25.11;63.26
45285;BME280;31026;43.780;25.948;2023-08-01T12:06:54;100098.34;;;25.08;63.11
45285;BME280;31026;43.780;25.948;2023-08-01T12:09:23;100105.81;;;25.06;63.48
45285;BME280;31026;43.780;25.948;2023-08-01T12:11:57;100109.56;;;25.05;63.44
45285;BME280;31026;43.780;25.948;2023-08-01T12:14:25;100091.25;;;25.07;63.14
45285;BME280;31026;43.780;25.948;2023-08-01T12:16:54;100100.41;;;25.06;63.21
45285;BME280;31026;43.780;25.948;2023-08-01T12:19:22;100078.09;;;25.04;63.45
45285;BME280;31026;43.780;25.948;2023-08-01T12:21:53;100084.16;;;25.06;63.19
45285;BME280;31026;43.780;25.948;2023-08-01T12:24:21;100098.72;;;25.05;63.69
45285;BME280;31026;43.780;25.948;2023-08-01T12:26:50;100079.97;;;25.04;63.38
45285;BME280;31026;43.780;25.948;2023-08-01T12:29:18;100094.16;;;25.06;63.49
45285;BME280;31026;43.780;25.948;2023-08-01T12:31:46;100074.94;;;25.00;63.47
45285;BME280;31026;43.780;25.948;2023-08-01T12:34:14;100084.75;;;25.01;63.49
45285;BME280;31026;43.780;25.948;2023-08-01T12:36:43;100092.47;;;25.05;63.36
45285;BME280;31026;43.780;25.948;2023-08-01T12:39:14;100070.19;;;25.02;63.49
45285;BME280;31026;43.780;25.948;2023-08-01T12:41:42;100067.47;;;25.02;63.61
45285;BME280;31026;43.780;25.948;2023-08-01T12:44:10;100069.16;;;25.04;63.44
45285;BME280;31026;43.780;25.948;2023-08-01T12:46:41;100065.41;;;25.05;63.52
45285;BME280;31026;43.780;25.948;2023-08-01T12:49:09;100079.56;;;25.07;63.61
45285;BME280;31026;43.780;25.948;2023-08-01T12:51:37;100065.41;;;25.05;63.52
45285;BME280;31026;43.780;25.948;2023-08-01T12:54:06;100067.69;;;25.01;63.59
45285;BME280;31026;43.780;25.948;2023-08-01T12:56:36;100060.84;;;25.05;63.75
45285;BME280;31026;43.780;25.948;2023-08-01T12:59:05;100046.28;;;25.06;63.66
45285;BME280;31026;43.780;25.948;2023-08-01T13:01:33;100055.63;;;25.04;63.72
45285;BME280;31026;43.780;25.948;2023-08-01T13:04:02;100036.88;;;25.02;63.57
45285;BME280;31026;43.780;25.948;2023-08-01T13:06:30;100049.19;;;25.05;63.75
45285;BME280;31026;43.780;25.948;2023-08-01T13:08:58;100040.41;;;25.02;63.76